Time;durP1;ratioP1;P1;durP2;ratioP2;P2;SDS_P1;SDS_P2;PMS_P1;PMS_P2;Temp;Humidity;BMP_temperature;BMP_pressure;BME280_temperature;BME280_humidity;BME280_pressure;Samples;Min_cycle;Max_cycle;Signal;HPM_P1;HPM_P2
2022/03/24 00:00:12;;;;;;;40.03;22.53;;;9.30;99.10;;;;;;5043528;28;20173;-77
2022/03/24 00:02:38;;;;;;;34.50;21.57;;;9.20;99.30;;;;;;5049162;28;20212;-76
2022/03/24 00:05:04;;;;;;;37.43;21.50;;;9.10;99.70;;;;;;5045549;28;20232;-77
2022/03/24 00:07:29;;;;;;;37.83;22.37;;;9.00;99.90;;;;;;5049191;28;20246;-77
2022/03/24 00:09:55;;;;;;;38.60;22.67;;;9.00;99.90;;;;;;5050753;28;20298;-77
2022/03/24 00:12:22;;;;;;;37.97;21.80;;;8.90;99.90;;;;;;5053166;28;20196;-77
2022/03/24 00:14:47;;;;;;;38.60;21.73;;;8.90;99.90;;;;;;5052022;28;20208;-78
2022/03/24 00:17:13;;;;;;;38.53;21.60;;;8.90;99.90;;;;;;5052418;28;20219;-77
2022/03/24 00:19:39;;;;;;;37.73;22.03;;;8.90;99.90;;;;;;5051413;28;20211;-78
2022/03/24 00:22:04;;;;;;;37.23;21.13;;;8.90;99.90;;;;;;5049980;28;20253;-74
2022/03/24 00:24:30;;;;;;;38.70;21.23;;;9.00;99.90;;;;;;5050555;28;20176;-76
2022/03/24 00:26:56;;;;;;;40.27;22.10;;;8.90;99.90;;;;;;5048341;28;20263;-75
2022/03/24 00:29:21;;;;;;;37.23;22.53;;;8.90;99.90;;;;;;5049144;28;20227;-76
2022/03/24 00:31:46;;;;;;;36.70;21.00;;;8.90;99.90;;;;;;5050857;28;20204;-73
2022/03/24 00:34:13;;;;;;;38.53;22.13;;;8.90;99.90;;;;;;5049265;28;20207;-75
2022/03/24 00:36:38;;;;;;;36.23;22.50;;;8.80;99.90;;;;;;5049875;28;20271;-76
2022/03/24 00:39:04;;;;;;;41.57;23.10;;;8.90;99.90;;;;;;5043295;28;20251;-75
2022/03/24 00:41:29;;;;;;;42.57;23.07;;;8.90;99.90;;;;;;5030763;28;20266;-76
2022/03/24 00:43:55;;;;;;;38.37;22.37;;;8.90;99.90;;;;;;5032040;28;20210;-76
2022/03/24 00:46:23;;;;;;;36.60;22.50;;;8.90;99.90;;;;;;5031442;28;20212;-77
2022/03/24 00:48:49;;;;;;;37.27;22.77;;;8.80;99.90;;;;;;5030568;28;20655;-77
2022/03/24 00:51:15;;;;;;;39.63;22.50;;;8.80;99.90;;;;;;5032441;28;20181;-76
2022/03/24 00:53:42;;;;;;;41.23;23.53;;;8.70;99.90;;;;;;5032539;28;20600;-76
2022/03/24 00:56:07;;;;;;;41.43;21.87;;;8.70;99.90;;;;;;5031874;28;20200;-77
2022/03/24 00:58:33;;;;;;;43.40;22.47;;;8.50;99.90;;;;;;5032237;28;20227;-76
2022/03/24 01:00:58;;;;;;;38.33;22.23;;;8.50;99.90;;;;;;5035643;28;20273;-75
2022/03/24 01:03:24;;;;;;;40.07;23.63;;;8.50;99.90;;;;;;5035501;28;20215;-76
2022/03/24 01:05:49;;;;;;;38.37;22.00;;;8.40;99.90;;;;;;5035847;28;20262;-76
2022/03/24 01:08:17;;;;;;;39.47;22.07;;;8.30;99.90;;;;;;5033252;28;20219;-76
2022/03/24 01:10:43;;;;;;;38.90;22.47;;;8.20;99.90;;;;;;5036120;28;20215;-77
2022/03/24 01:13:09;;;;;;;40.60;22.43;;;8.10;99.90;;;;;;5035024;28;20220;-76
2022/03/24 01:15:35;;;;;;;34.63;21.10;;;8.00;99.90;;;;;;5044941;28;20261;-76
2022/03/24 01:18:01;;;;;;;41.47;23.63;;;8.00;99.90;;;;;;5050693;28;20631;-75
2022/03/24 01:20:30;;;;;;;43.13;22.63;;;8.00;99.90;;;;;;5053734;28;20242;-76
2022/03/24 01:22:58;;;;;;;42.40;22.50;;;8.00;99.90;;;;;;5053715;28;20215;-76
2022/03/24 01:25:27;;;;;;;40.40;22.23;;;8.00;99.90;;;;;;5053529;28;20227;-76
2022/03/24 01:27:52;;;;;;;40.03;22.57;;;7.90;99.90;;;;;;5053206;28;20711;-76
2022/03/24 01:30:18;;;;;;;43.37;22.80;;;7.90;99.90;;;;;;5053917;28;20186;-75
2022/03/24 01:32:45;;;;;;;36.53;22.33;;;7.90;99.90;;;;;;5053497;28;20204;-75
2022/03/24 01:35:11;;;;;;;41.77;23.97;;;7.90;99.90;;;;;;5056021;28;20275;-76
2022/03/24 01:37:37;;;;;;;46.60;24.23;;;7.90;99.90;;;;;;5064288;28;20266;-76
2022/03/24 01:40:05;;;;;;;48.07;23.67;;;7.90;99.90;;;;;;5063788;28;20218;-76
2022/03/24 01:42:34;;;;;;;42.63;22.70;;;7.70;99.90;;;;;;5065613;28;20273;-75
2022/03/24 01:45:00;;;;;;;45.93;23.30;;;7.80;99.90;;;;;;5066209;28;20168;-75
2022/03/24 01:47:26;;;;;;;41.87;22.93;;;7.70;99.90;;;;;;5062718;28;20442;-75
2022/03/24 01:49:53;;;;;;;42.77;23.27;;;7.60;99.90;;;;;;5054848;28;20203;-76
2022/03/24 01:52:19;;;;;;;43.70;22.97;;;7.50;99.90;;;;;;5052764;28;20711;-74
2022/03/24 01:54:47;;;;;;;39.90;22.60;;;7.60;99.90;;;;;;5055131;28;20207;-75
2022/03/24 01:57:15;;;;;;;40.80;23.80;;;7.50;99.90;;;;;;5053039;28;20210;-76
2022/03/24 01:59:41;;;;;;;44.50;22.73;;;7.40;99.90;;;;;;5048539;28;20330;-77
2022/03/24 02:02:08;;;;;;;42.33;23.27;;;7.40;99.90;;;;;;5047611;28;20277;-76
2022/03/24 02:04:37;;;;;;;38.50;23.53;;;7.40;99.90;;;;;;5053903;28;20208;-73
2022/03/24 02:07:05;;;;;;;40.47;22.57;;;7.30;99.90;;;;;;5051537;28;20626;-74
2022/03/24 02:09:31;;;;;;;44.40;24.33;;;7.40;99.90;;;;;;5050259;28;20207;-74
2022/03/24 02:11:57;;;;;;;40.53;23.47;;;7.30;99.90;;;;;;5053143;28;20207;-74
2022/03/24 02:14:22;;;;;;;41.67;22.57;;;7.20;99.90;;;;;;5052703;28;20223;-73
2022/03/24 02:16:49;;;;;;;41.07;23.23;;;7.20;99.90;;;;;;5051545;28;20204;-75
2022/03/24 02:19:17;;;;;;;42.97;23.40;;;7.10;99.90;;;;;;5050556;28;20203;-74
2022/03/24 02:21:44;;;;;;;42.07;24.03;;;7.10;99.90;;;;;;5052422;28;20247;-74
2022/03/24 02:24:15;;;;;;;44.67;24.20;;;7.20;99.90;;;;;;5051657;28;20195;-74
2022/03/24 02:26:42;;;;;;;41.43;22.93;;;7.10;99.90;;;;;;5052484;28;20222;-74
2022/03/24 02:29:10;;;;;;;41.03;23.57;;;7.10;99.90;;;;;;5051731;28;20301;-74
2022/03/24 02:31:38;;;;;;;41.83;23.17;;;7.20;99.90;;;;;;5051001;28;20290;-75
2022/03/24 02:36:53;;;;;;;41.90;23.33;;;7.10;99.90;;;;;;5052370;28;20366;-75
2022/03/24 02:39:19;;;;;;;47.10;24.73;;;7.00;99.90;;;;;;5050617;28;20617;-74
2022/03/24 02:41:46;;;;;;;51.10;24.90;;;7.00;99.90;;;;;;5050425;28;20203;-74
2022/03/24 02:44:14;;;;;;;45.63;25.07;;;6.90;99.90;;;;;;5050755;28;20257;-74
2022/03/24 02:46:46;;;;;;;40.30;23.10;;;6.90;99.90;;;;;;5053802;28;20265;-74
2022/03/24 02:49:11;;;;;;;44.53;25.80;;;6.80;99.90;;;;;;5048447;28;20777;-74
2022/03/24 02:51:37;;;;;;;42.47;22.37;;;6.80;99.90;;;;;;5051944;28;20183;-74
2022/03/24 02:54:04;;;;;;;46.53;24.57;;;6.90;99.90;;;;;;5052288;28;20662;-74
2022/03/24 02:56:30;;;;;;;49.00;24.77;;;6.80;99.90;;;;;;5050542;28;20689;-74
2022/03/24 02:58:56;;;;;;;42.43;24.43;;;6.70;99.90;;;;;;5050020;28;20211;-73
2022/03/24 03:01:25;;;;;;;44.67;23.70;;;6.60;99.90;;;;;;5050478;28;20212;-72
2022/03/24 03:03:52;;;;;;;42.80;22.97;;;6.60;99.90;;;;;;5050393;28;20350;-73
2022/03/24 03:06:18;;;;;;;42.17;23.23;;;6.50;99.90;;;;;;5050912;28;20229;-72
2022/03/24 03:08:44;;;;;;;44.13;23.90;;;6.50;99.90;;;;;;5050754;28;20208;-73
2022/03/24 03:11:09;;;;;;;41.87;23.53;;;6.40;99.90;;;;;;5051640;28;20207;-72
2022/03/24 03:13:35;;;;;;;47.27;24.43;;;6.50;99.90;;;;;;5051560;28;20207;-74
2022/03/24 03:16:00;;;;;;;43.20;24.43;;;6.40;99.90;;;;;;5050253;28;20231;-73
2022/03/24 03:18:26;;;;;;;38.97;24.37;;;6.30;99.90;;;;;;5047884;28;20641;-73
2022/03/24 03:20:51;;;;;;;45.43;22.63;;;6.40;99.90;;;;;;5050335;28;20179;-73
2022/03/24 03:23:18;;;;;;;43.57;23.43;;;6.30;99.90;;;;;;5050902;28;20799;-71
2022/03/24 03:25:43;;;;;;;43.50;24.83;;;6.30;99.90;;;;;;5051328;28;20778;-74
2022/03/24 03:28:09;;;;;;;46.13;23.90;;;6.20;99.90;;;;;;5040290;28;20233;-74
2022/03/24 03:30:34;;;;;;;43.13;24.77;;;6.20;99.90;;;;;;5018417;28;20181;-74
2022/03/24 03:33:00;;;;;;;43.63;23.70;;;6.10;99.90;;;;;;5012006;28;20209;-74
2022/03/24 03:35:27;;;;;;;48.70;24.17;;;6.10;99.90;;;;;;5011633;28;20201;-74
2022/03/24 03:37:54;;;;;;;45.37;24.87;;;6.10;99.90;;;;;;5017950;28;20201;-74
2022/03/24 03:40:19;;;;;;;45.50;25.37;;;6.10;99.90;;;;;;5009730;28;20208;-74
2022/03/24 03:42:46;;;;;;;43.53;24.43;;;6.10;99.90;;;;;;5009904;28;20213;-73
2022/03/24 03:45:12;;;;;;;46.53;24.03;;;5.80;99.90;;;;;;5010513;28;20637;-73
2022/03/24 03:47:37;;;;;;;47.70;25.23;;;5.90;99.90;;;;;;5011184;28;20241;-74
2022/03/24 03:50:03;;;;;;;43.00;25.13;;;6.10;99.90;;;;;;5010664;28;20221;-74
2022/03/24 03:52:29;;;;;;;48.67;24.97;;;6.00;99.90;;;;;;5009915;28;20216;-74
2022/03/24 03:54:54;;;;;;;45.60;24.33;;;6.00;99.90;;;;;;5011109;28;20614;-74
2022/03/24 03:57:20;;;;;;;47.87;25.83;;;6.10;99.90;;;;;;5011891;28;20185;-75
2022/03/24 03:59:45;;;;;;;41.57;23.43;;;6.10;99.90;;;;;;5016154;28;20208;-75
2022/03/24 04:02:11;;;;;;;45.87;24.83;;;6.10;99.90;;;;;;5011085;28;20625;-75
2022/03/24 04:04:37;;;;;;;45.77;24.23;;;6.00;99.90;;;;;;5011016;28;20599;-75
2022/03/24 04:07:03;;;;;;;47.10;26.90;;;5.90;99.90;;;;;;5011159;28;20217;-75
2022/03/24 04:09:28;;;;;;;43.50;25.23;;;5.80;99.90;;;;;;5010344;28;20255;-75
2022/03/24 04:11:54;;;;;;;43.77;25.27;;;5.80;99.90;;;;;;5011519;28;20528;-75
2022/03/24 04:14:20;;;;;;;41.20;24.97;;;5.70;99.90;;;;;;5011273;28;20635;-75
2022/03/24 04:16:46;;;;;;;46.87;26.60;;;5.70;99.90;;;;;;5011337;28;20239;-75
2022/03/24 04:19:12;;;;;;;47.10;26.10;;;5.70;99.90;;;;;;5009118;28;20240;-75
2022/03/24 04:21:38;;;;;;;49.90;27.20;;;5.60;99.90;;;;;;5009720;28;20205;-75
2022/03/24 04:24:04;;;;;;;48.50;26.23;;;5.60;99.90;;;;;;5010156;28;20197;-75
2022/03/24 04:26:30;;;;;;;47.77;25.40;;;5.60;99.90;;;;;;5011038;28;20731;-75
2022/03/24 04:28:55;;;;;;;45.40;24.93;;;5.60;99.90;;;;;;5013901;28;20221;-76
2022/03/24 04:31:22;;;;;;;51.20;26.57;;;5.70;99.90;;;;;;5013125;28;20215;-75
2022/03/24 04:33:48;;;;;;;49.50;28.60;;;5.60;99.90;;;;;;5013591;28;20220;-75
2022/03/24 04:36:14;;;;;;;49.53;27.37;;;5.70;99.90;;;;;;5015310;28;20191;-75
2022/03/24 04:38:39;;;;;;;46.00;25.13;;;5.70;99.90;;;;;;5013907;28;20350;-74
2022/03/24 04:41:05;;;;;;;46.40;26.23;;;5.60;99.90;;;;;;5014947;28;20219;-75
2022/03/24 04:43:32;;;;;;;48.47;26.53;;;5.60;99.90;;;;;;5013170;28;20765;-74
2022/03/24 04:45:57;;;;;;;50.90;28.23;;;5.70;99.90;;;;;;5014831;28;20215;-74
2022/03/24 04:48:23;;;;;;;51.17;27.73;;;5.60;99.90;;;;;;5012501;28;20735;-74
2022/03/24 04:50:48;;;;;;;49.43;27.47;;;5.70;99.90;;;;;;5015056;28;20170;-75
2022/03/24 04:53:15;;;;;;;48.27;26.97;;;5.40;99.90;;;;;;5014612;28;20242;-74
2022/03/24 04:55:42;;;;;;;47.50;28.47;;;5.50;99.90;;;;;;5014499;28;20296;-76
2022/03/24 04:58:08;;;;;;;51.70;29.13;;;5.60;99.90;;;;;;5012645;28;20220;-75
2022/03/24 05:00:34;;;;;;;51.23;28.20;;;5.70;99.90;;;;;;5021374;28;20247;-75
2022/03/24 05:02:59;;;;;;;47.97;27.67;;;5.80;99.90;;;;;;5013528;28;20210;-75
2022/03/24 05:05:25;;;;;;;50.37;26.93;;;5.70;99.90;;;;;;5014284;28;20214;-75
2022/03/24 05:07:50;;;;;;;47.17;27.53;;;5.80;99.90;;;;;;5012642;28;20244;-74
2022/03/24 05:10:16;;;;;;;48.87;26.10;;;5.80;99.90;;;;;;5014243;28;20227;-74
2022/03/24 05:12:42;;;;;;;50.93;28.93;;;5.90;99.90;;;;;;5014232;28;20196;-73
2022/03/24 05:15:09;;;;;;;45.63;26.80;;;5.90;99.90;;;;;;5013481;28;20233;-73
2022/03/24 05:17:35;;;;;;;49.53;27.40;;;5.90;99.90;;;;;;5014085;28;20688;-75
2022/03/24 05:20:01;;;;;;;53.77;28.07;;;5.90;99.90;;;;;;5012015;28;20258;-74
2022/03/24 05:22:26;;;;;;;48.60;27.10;;;5.90;99.90;;;;;;5013827;28;20240;-74
2022/03/24 05:24:52;;;;;;;50.87;27.30;;;5.90;99.90;;;;;;5014223;28;20223;-74
2022/03/24 05:27:17;;;;;;;54.40;27.80;;;5.90;99.90;;;;;;5013088;28;20183;-76
2022/03/24 05:29:43;;;;;;;56.77;28.50;;;5.90;99.90;;;;;;5019364;28;20704;-75
2022/03/24 05:32:09;;;;;;;53.43;28.27;;;5.90;99.90;;;;;;5012804;28;20204;-75
2022/03/24 05:34:34;;;;;;;56.70;30.43;;;5.80;99.90;;;;;;5013823;28;20205;-75
2022/03/24 05:37:00;;;;;;;55.17;29.30;;;5.80;99.90;;;;;;5013947;28;20262;-75
2022/03/24 05:39:26;;;;;;;55.37;28.50;;;6.00;99.90;;;;;;5012910;28;20208;-74
2022/03/24 05:41:51;;;;;;;55.30;29.07;;;6.10;99.90;;;;;;5017713;28;20187;-75
2022/03/24 05:44:17;;;;;;;51.50;28.80;;;6.20;99.90;;;;;;5016503;28;20212;-75
2022/03/24 05:46:44;;;;;;;49.67;28.27;;;6.40;99.90;;;;;;5014940;28;20189;-75
2022/03/24 05:49:14;;;;;;;48.73;28.87;;;6.40;99.90;;;;;;5013043;28;20216;-75
2022/03/24 05:51:44;;;;;;;53.03;29.70;;;6.60;99.90;;;;;;5013792;28;20177;-75
2022/03/24 05:54:12;;;;;;;52.27;29.07;;;6.70;99.90;;;;;;5013967;28;20670;-74
2022/03/24 05:56:37;;;;;;;58.77;28.87;;;7.10;99.90;;;;;;5030116;28;20223;-74
2022/03/24 05:59:03;;;;;;;49.33;27.57;;;9.40;99.90;;;;;;5032846;28;20239;-74
2022/03/24 06:01:29;;;;;;;47.63;27.67;;;11.10;99.90;;;;;;5033778;28;20689;-75
2022/03/24 06:03:55;;;;;;;50.00;26.93;;;12.70;99.90;;;;;;5034370;28;20224;-74
2022/03/24 06:06:22;;;;;;;48.47;27.63;;;14.10;99.90;;;;;;5034113;28;20179;-74
2022/03/24 06:08:51;;;;;;;42.53;26.77;;;15.50;99.90;;;;;;5033198;28;20346;-74
2022/03/24 06:11:17;;;;;;;46.67;30.05;;;16.30;99.90;;;;;;5036107;28;20704;-74
2022/03/24 06:13:43;;;;;;;45.67;29.48;;;16.90;99.90;;;;;;5033788;28;20212;-74
2022/03/24 06:16:09;;;;;;;44.65;28.10;;;17.30;98.90;;;;;;5032037;28;20736;-75
2022/03/24 06:18:36;;;;;;;45.97;29.08;;;17.80;97.10;;;;;;5032096;28;20218;-75
2022/03/24 06:21:05;;;;;;;37.90;28.02;;;18.10;95.80;;;;;;5033590;28;20179;-75
2022/03/24 06:23:31;;;;;;;46.75;30.98;;;18.50;94.00;;;;;;5032929;28;20212;-76
2022/03/24 06:25:57;;;;;;;45.75;30.30;;;18.90;92.70;;;;;;5031367;28;20228;-76
2022/03/24 06:28:23;;;;;;;49.17;31.35;;;19.10;92.20;;;;;;5031878;28;20228;-75
2022/03/24 06:30:48;;;;;;;42.50;29.60;;;18.80;91.60;;;;;;5032919;28;20262;-76
2022/03/24 06:33:16;;;;;;;46.65;32.08;;;19.40;91.10;;;;;;5031918;28;20274;-76
2022/03/24 06:35:43;;;;;;;45.33;31.63;;;20.90;88.40;;;;;;5032540;28;20212;-75
2022/03/24 06:38:08;;;;;;;45.92;31.20;;;21.00;85.20;;;;;;5030906;28;20271;-75
2022/03/24 06:40:33;;;;;;;45.38;32.28;;;20.30;84.60;;;;;;5031429;28;20295;-76
2022/03/24 06:42:59;;;;;;;43.20;30.88;;;20.10;85.00;;;;;;5032569;28;20212;-76
2022/03/24 06:45:25;;;;;;;43.28;30.95;;;20.10;84.10;;;;;;5033014;28;20177;-77
2022/03/24 06:47:50;;;;;;;54.10;32.40;;;20.30;83.00;;;;;;5031918;28;20661;-75
2022/03/24 06:50:16;;;;;;;46.35;33.42;;;20.00;83.30;;;;;;5032525;28;20208;-77
2022/03/24 06:52:42;;;;;;;47.30;32.03;;;19.70;83.40;;;;;;5032171;28;20204;-77
2022/03/24 06:55:09;;;;;;;49.60;33.17;;;19.80;82.90;;;;;;5032368;28;20299;-75
2022/03/24 06:57:36;;;;;;;45.65;32.05;;;20.70;81.10;;;;;;5034020;28;20182;-75
2022/03/24 07:00:03;;;;;;;45.05;32.42;;;20.60;80.60;;;;;;5032798;28;20173;-76
2022/03/24 07:02:28;;;;;;;51.35;33.30;;;21.60;79.10;;;;;;5032185;28;20232;-75
2022/03/24 07:04:54;;;;;;;46.92;33.67;;;21.30;77.20;;;;;;5034037;28;20228;-75
2022/03/24 07:07:20;;;;;;;47.25;33.50;;;20.40;77.80;;;;;;5031518;28;20200;-75
2022/03/24 07:09:45;;;;;;;49.38;33.35;;;20.20;79.00;;;;;;5031694;28;20235;-74
2022/03/24 07:12:11;;;;;;;48.45;34.63;;;19.90;78.80;;;;;;5032913;28;20668;-74
2022/03/24 07:14:37;;;;;;;58.47;36.78;;;20.00;80.10;;;;;;5031348;28;20656;-75
2022/03/24 07:17:04;;;;;;;52.38;36.92;;;21.40;77.50;;;;;;5034283;28;20219;-76
2022/03/24 07:19:29;;;;;;;51.03;39.03;;;21.50;76.20;;;;;;5031661;28;20250;-75
2022/03/24 07:21:55;;;;;;;50.58;37.03;;;21.20;76.40;;;;;;5037513;28;20681;-76
2022/03/24 07:24:20;;;;;;;45.70;34.33;;;22.30;74.50;;;;;;5031821;28;20184;-76
2022/03/24 07:26:46;;;;;;;45.85;34.42;;;22.00;72.50;;;;;;5034041;28;20203;-75
2022/03/24 07:29:11;;;;;;;45.75;34.67;;;21.80;73.40;;;;;;5036067;28;20216;-75
2022/03/24 07:31:38;;;;;;;48.63;35.20;;;21.40;73.80;;;;;;5034466;28;20311;-75
2022/03/24 07:34:04;;;;;;;42.67;33.83;;;21.70;72.60;;;;;;5031669;28;20216;-75
2022/03/24 07:36:30;;;;;;;45.60;34.17;;;22.40;71.50;;;;;;5030540;28;20226;-76
2022/03/24 07:38:57;;;;;;;46.00;33.38;;;22.10;70.20;;;;;;5032114;28;20223;-75
2022/03/24 07:41:23;;;;;;;51.08;34.58;;;20.30;71.80;;;;;;5031568;28;20262;-76
2022/03/24 07:43:50;;;;;;;48.72;34.05;;;19.90;74.90;;;;;;5035140;28;20212;-76
2022/03/24 07:46:15;;;;;;;51.45;34.38;;;20.30;75.40;;;;;;5033835;28;20219;-75
2022/03/24 07:48:46;;;;;;;44.17;32.70;;;20.00;75.10;;;;;;5034485;28;20212;-75
2022/03/24 07:51:11;;;;;;;45.72;32.65;;;19.50;76.50;;;;;;5033743;28;20189;-75
2022/03/24 07:53:49;;;;;;;45.33;32.92;;;20.70;75.20;;;;;;5034780;28;20235;-75
2022/03/24 07:56:24;;;;;;;42.20;31.85;;;21.20;72.20;;;;;;5035977;28;20219;-75
2022/03/24 07:58:50;;;;;;;48.95;34.15;;;21.20;73.80;;;;;;5036987;28;20266;-75
2022/03/24 08:01:31;;;;;;;48.08;33.70;;;21.00;73.20;;;;;;5033460;28;20211;-75
2022/03/24 08:03:58;;;;;;;49.40;32.78;;;21.30;72.80;;;;;;5061665;22;20303;-75
2022/03/24 08:06:25;;;;;;;46.63;32.70;;;20.80;73.10;;;;;;5049833;28;20195;-77
2022/03/24 08:08:51;;;;;;;48.22;32.38;;;20.30;73.30;;;;;;5029423;28;20200;-76
2022/03/24 08:11:17;;;;;;;46.63;33.00;;;21.00;73.50;;;;;;5030440;28;20208;-76
2022/03/24 08:13:42;;;;;;;58.58;41.70;;;21.80;71.60;;;;;;5030419;28;20629;-74
2022/03/24 08:16:08;;;;;;;46.97;31.33;;;21.70;71.10;;;;;;5032016;28;20212;-74
2022/03/24 08:18:33;;;;;;;50.97;32.63;;;22.10;70.80;;;;;;5031106;28;20195;-79
2022/03/24 08:20:59;;;;;;;48.70;32.33;;;22.10;70.80;;;;;;5033456;28;20902;-77
2022/03/24 08:23:25;;;;;;;46.20;32.33;;;21.90;69.90;;;;;;5020812;28;20212;-76
2022/03/24 08:25:51;;;;;;;46.88;32.60;;;19.70;73.10;;;;;;5028336;28;20633;-75
2022/03/24 08:28:17;;;;;;;45.75;32.80;;;20.30;74.40;;;;;;5032882;28;20307;-82
2022/03/24 08:30:44;;;;;;;46.90;34.72;;;20.90;72.50;;;;;;5029937;28;20712;-77
2022/03/24 08:33:10;;;;;;;48.65;32.13;;;20.90;72.30;;;;;;5031761;28;20218;-77
2022/03/24 08:35:36;;;;;;;45.20;31.73;;;20.70;72.60;;;;;;5030116;28;20626;-77
2022/03/24 08:38:02;;;;;;;46.58;32.17;;;20.30;74.20;;;;;;5029307;28;20688;-77
2022/03/24 08:40:28;;;;;;;44.90;32.05;;;20.50;72.70;;;;;;5039026;28;20803;-76
2022/03/24 08:42:54;;;;;;;53.42;32.22;;;20.90;73.40;;;;;;5030668;28;20287;-78
2022/03/24 08:45:20;;;;;;;52.35;33.10;;;20.70;72.50;;;;;;5027775;28;20200;-77
2022/03/24 08:47:46;;;;;;;49.95;32.60;;;20.60;73.70;;;;;;5027295;28;20208;-79
2022/03/24 08:50:12;;;;;;;50.33;33.17;;;21.10;72.10;;;;;;5028976;28;20212;-77
2022/03/24 08:52:38;;;;;;;55.83;35.28;;;21.30;71.90;;;;;;5029894;28;20208;-77
2022/03/24 08:55:05;;;;;;;52.58;32.63;;;19.80;73.70;;;;;;5031394;28;20217;-74
2022/03/24 08:57:32;;;;;;;50.88;32.70;;;20.30;74.50;;;;;;5029753;28;20173;-76
2022/03/24 09:00:00;;;;;;;50.63;32.22;;;19.80;74.80;;;;;;5031146;28;20169;-75
2022/03/24 09:02:26;;;;;;;51.55;33.78;;;20.20;74.60;;;;;;5029303;28;20299;-74
2022/03/24 09:04:52;;;;;;;46.55;31.25;;;20.80;74.30;;;;;;5032071;28;20208;-75
2022/03/24 09:07:18;;;;;;;52.22;34.35;;;20.40;73.30;;;;;;5041185;28;20233;-76
2022/03/24 09:09:43;;;;;;;55.67;35.45;;;19.50;75.00;;;;;;5032753;28;20224;-75
2022/03/24 09:12:10;;;;;;;60.92;39.22;;;18.50;76.70;;;;;;5034683;28;20222;-76
2022/03/24 09:14:37;;;;;;;56.78;34.42;;;19.10;78.20;;;;;;5031362;28;20220;-75
2022/03/24 09:17:02;;;;;;;61.17;37.38;;;18.90;78.30;;;;;;5028375;28;20208;-75
2022/03/24 09:19:29;;;;;;;56.00;32.42;;;19.30;77.80;;;;;;5028205;28;20237;-74
2022/03/24 09:21:54;;;;;;;52.85;31.42;;;19.20;76.60;;;;;;5031753;28;20287;-76
2022/03/24 09:24:20;;;;;;;57.30;32.50;;;19.00;76.70;;;;;;5031219;28;20580;-77
2022/03/24 09:26:45;;;;;;;50.00;30.23;;;19.30;75.90;;;;;;5026213;28;20208;-76
2022/03/24 09:29:11;;;;;;;47.90;29.60;;;19.40;75.00;;;;;;5033545;28;20215;-75
2022/03/24 09:31:36;;;;;;;48.78;30.77;;;19.40;75.90;;;;;;5032758;28;20212;-80
2022/03/24 09:34:03;;;;;;;46.75;29.42;;;19.10;75.70;;;;;;5035684;28;20212;-80
2022/03/24 09:36:29;;;;;;;46.88;29.95;;;19.00;75.30;;;;;;5035854;28;20255;-78
2022/03/24 09:38:55;;;;;;;48.30;28.25;;;19.20;74.90;;;;;;5033640;28;20208;-79
2022/03/24 09:41:21;;;;;;;43.92;26.95;;;18.60;74.20;;;;;;5033101;28;20247;-76
2022/03/24 09:43:47;;;;;;;43.42;25.63;;;18.40;74.00;;;;;;5032444;28;20204;-76
2022/03/24 09:46:15;;;;;;;45.83;26.65;;;18.50;74.60;;;;;;5033556;28;20634;-75
2022/03/24 09:48:41;;;;;;;43.38;26.10;;;18.60;75.00;;;;;;5032119;28;20224;-74
2022/03/24 09:51:07;;;;;;;46.05;26.45;;;18.40;74.10;;;;;;5042300;28;20746;-74
2022/03/24 09:53:33;;;;;;;43.83;26.35;;;18.70;74.70;;;;;;5037115;28;20204;-74
2022/03/24 09:55:59;;;;;;;41.33;24.27;;;18.60;73.40;;;;;;5030678;28;20231;-74
2022/03/24 09:58:26;;;;;;;41.45;24.75;;;18.50;73.40;;;;;;5032612;28;20209;-75
2022/03/24 10:00:52;;;;;;;43.97;23.98;;;18.60;73.30;;;;;;5032996;28;20208;-74
2022/03/24 10:03:22;;;;;;;41.10;25.45;;;18.60;72.90;;;;;;5033756;28;20238;-74
2022/03/24 10:06:04;;;;;;;44.00;26.90;;;18.80;72.80;;;;;;5041734;28;20216;-74
2022/03/24 10:08:30;;;;;;;35.60;23.58;;;18.40;73.40;;;;;;5032573;28;20240;-74
2022/03/24 10:10:58;;;;;;;35.63;23.10;;;18.00;73.80;;;;;;5032193;28;20291;-74
2022/03/24 10:13:43;;;;;;;32.45;20.08;;;17.80;74.50;;;;;;5031891;28;20287;-74
2022/03/24 10:16:10;;;;;;;35.90;21.45;;;18.20;72.90;;;;;;5032002;28;20220;-74
2022/03/24 10:18:35;;;;;;;31.90;20.80;;;18.20;70.00;;;;;;5031154;28;20250;-74
2022/03/24 10:21:03;;;;;;;31.83;20.55;;;18.00;70.90;;;;;;5032352;28;20176;-74
2022/03/24 10:23:33;;;;;;;42.53;24.02;;;18.30;71.20;;;;;;5036544;28;20215;-74
2022/03/24 10:26:03;;;;;;;42.90;23.55;;;18.20;71.90;;;;;;5014435;28;20262;-74
2022/03/24 10:28:29;;;;;;;34.60;21.80;;;18.20;73.50;;;;;;5060774;28;20295;-75
2022/03/24 10:31:02;;;;;;;32.63;21.45;;;18.00;72.70;;;;;;5032259;28;20700;-75
2022/03/24 10:33:35;;;;;;;31.98;20.70;;;18.40;72.60;;;;;;5027765;28;20175;-77
2022/03/24 10:36:09;;;;;;;28.10;18.77;;;18.60;72.20;;;;;;5023147;28;20197;-78
2022/03/24 10:38:39;;;;;;;30.95;18.92;;;18.80;70.60;;;;;;5028051;28;20262;-76
2022/03/24 10:41:12;;;;;;;31.95;19.73;;;18.70;68.90;;;;;;5031832;28;20729;-77
2022/03/24 10:43:38;;;;;;;36.38;20.75;;;18.80;69.90;;;;;;5031997;28;20295;-76
2022/03/24 10:46:14;;;;;;;35.53;20.42;;;18.70;69.70;;;;;;5032383;28;20757;-78
2022/03/24 10:48:40;;;;;;;36.10;21.60;;;18.70;69.70;;;;;;5040185;28;20200;-76
2022/03/24 10:51:06;;;;;;;33.88;19.95;;;18.40;69.70;;;;;;5037713;28;20203;-77
2022/03/24 10:53:41;;;;;;;40.30;19.25;;;18.20;69.70;;;;;;5037035;28;20558;-76
2022/03/24 10:56:29;;;;;;;30.48;19.70;;;17.90;70.20;;;;;;5037512;28;20285;-75
2022/03/24 10:59:02;;;;;;;32.65;18.70;;;17.80;69.60;;;;;;5040555;28;20255;-76
2022/03/24 11:01:29;;;;;;;39.17;20.42;;;17.60;68.30;;;;;;5035374;28;20208;-75
2022/03/24 11:03:55;;;;;;;39.08;20.88;;;17.70;71.20;;;;;;5038483;28;20220;-77
2022/03/24 11:06:24;;;;;;;32.53;18.58;;;17.70;72.00;;;;;;5043586;28;20692;-78
2022/03/24 11:09:00;;;;;;;29.02;18.13;;;18.10;70.90;;;;;;5039227;28;20212;-76
2022/03/24 11:11:27;;;;;;;29.55;16.25;;;18.20;69.80;;;;;;5038987;28;20226;-77
2022/03/24 11:14:02;;;;;;;32.13;18.75;;;18.30;69.20;;;;;;5050951;28;20196;-77
2022/03/24 11:16:33;;;;;;;37.78;18.75;;;18.40;69.00;;;;;;5049654;28;20219;-74
2022/03/24 11:19:00;;;;;;;28.77;17.58;;;18.60;68.90;;;;;;5050864;28;20200;-76
2022/03/24 11:21:50;;;;;;;27.25;16.83;;;18.80;68.90;;;;;;5048221;28;20267;-79
2022/03/24 11:24:15;;;;;;;29.80;17.30;;;18.80;68.30;;;;;;5042815;28;20196;-76
2022/03/24 11:26:42;;;;;;;26.67;16.48;;;18.30;67.40;;;;;;5036280;28;20231;-77
2022/03/24 11:29:08;;;;;;;29.55;17.42;;;18.40;67.80;;;;;;5044433;28;20212;-77
2022/03/24 11:31:34;;;;;;;25.58;15.32;;;18.40;68.20;;;;;;5037966;28;20204;-78
2022/03/24 11:34:01;;;;;;;26.33;14.63;;;18.30;66.50;;;;;;5034063;28;20769;-77
2022/03/24 11:36:28;;;;;;;33.42;15.80;;;18.20;65.20;;;;;;5030343;28;20176;-76
2022/03/24 11:38:56;;;;;;;27.38;15.93;;;18.20;66.50;;;;;;5030717;28;20212;-75
2022/03/24 11:41:37;;;;;;;25.17;14.95;;;18.30;67.10;;;;;;5030696;28;20287;-75
2022/03/24 11:44:08;;;;;;;24.20;14.43;;;18.40;66.90;;;;;;5030553;28;20211;-76
2022/03/24 11:46:44;;;;;;;25.33;15.38;;;18.40;66.60;;;;;;5031087;28;20219;-76
2022/03/24 11:49:14;;;;;;;28.35;15.65;;;18.30;66.90;;;;;;5034139;28;20227;-76
2022/03/24 11:51:40;;;;;;;28.85;15.18;;;18.20;67.00;;;;;;5031912;28;20246;-76
2022/03/24 11:54:08;;;;;;;29.15;16.75;;;18.30;67.20;;;;;;5031662;28;20548;-77
2022/03/24 11:56:34;;;;;;;25.48;16.50;;;18.50;67.30;;;;;;5031920;28;20580;-73
2022/03/24 11:59:17;;;;;;;26.05;16.40;;;18.80;67.40;;;;;;5032518;28;20298;-75
2022/03/24 12:01:42;;;;;;;28.67;16.40;;;18.50;68.20;;;;;;5031974;28;20204;-76
2022/03/24 12:04:14;;;;;;;29.42;16.42;;;18.60;67.60;;;;;;5032395;28;20208;-77
2022/03/24 12:06:46;;;;;;;27.38;15.57;;;18.70;68.00;;;;;;5032867;28;20184;-76
2022/03/24 12:09:17;;;;;;;27.85;16.17;;;18.60;67.40;;;;;;5031714;28;20223;-75
2022/03/24 12:11:44;;;;;;;25.50;14.55;;;18.50;67.30;;;;;;5032460;28;20196;-76
2022/03/24 12:14:36;;;;;;;24.83;14.48;;;18.40;67.60;;;;;;5032304;28;20557;-75
2022/03/24 12:17:07;;;;;;;23.92;13.82;;;18.30;66.00;;;;;;5025560;28;20227;-76
2022/03/24 12:19:32;;;;;;;27.05;14.85;;;18.30;65.90;;;;;;5031960;28;20635;-76
2022/03/24 12:21:59;;;;;;;24.95;14.40;;;18.00;65.70;;;;;;5032294;28;20224;-75
2022/03/24 12:24:34;;;;;;;22.45;14.50;;;18.00;66.00;;;;;;5032116;28;20566;-76
2022/03/24 12:27:04;;;;;;;25.40;15.07;;;18.00;66.20;;;;;;5026618;28;20172;-75
2022/03/24 12:29:30;;;;;;;25.25;14.85;;;17.80;66.10;;;;;;5030806;28;20208;-76
2022/03/24 12:31:59;;;;;;;22.92;14.63;;;17.90;66.40;;;;;;5031540;28;20215;-77